Time;durP1;ratioP1;P1;durP2;ratioP2;P2;SDS_P1;SDS_P2;PMS_P1;PMS_P2;Temp;Humidity;BMP_temperature;BMP_pressure;BME280_temperature;BME280_humidity;BME280_pressure;Samples;Min_cycle;Max_cycle;Signal;HPM_P1;HPM_P2
2021/12/12 00:00:31;;;;;;;53.22;41.35;;;0.70;99.90;;;;;;5064414;28;20390;-82
2021/12/12 00:03:03;;;;;;;58.35;42.97;;;0.70;99.90;;;;;;5064745;28;20452;-81
2021/12/12 00:05:59;;;;;;;54.03;42.33;;;0.60;99.90;;;;;;5062580;28;20406;-84
2021/12/12 00:08:26;;;;;;;53.40;41.90;;;0.60;99.90;;;;;;5054983;28;20370;-82
2021/12/12 00:10:56;;;;;;;58.33;43.13;;;0.50;99.90;;;;;;5066364;28;20397;-81
2021/12/12 00:13:27;;;;;;;56.10;43.45;;;0.40;99.90;;;;;;5064759;28;20393;-84
2021/12/12 00:15:53;;;;;;;55.85;43.53;;;0.30;99.90;;;;;;5066961;28;20469;-82
2021/12/12 00:18:18;;;;;;;60.17;44.20;;;0.30;99.90;;;;;;5064901;28;20480;-84
2021/12/12 00:20:45;;;;;;;59.25;45.00;;;0.30;99.90;;;;;;5065612;28;20846;-85
2021/12/12 00:23:11;;;;;;;56.72;43.58;;;0.20;99.90;;;;;;5068007;28;20405;-81
2021/12/12 00:25:41;;;;;;;57.47;44.00;;;0.20;99.90;;;;;;5066383;28;20378;-84
2021/12/12 00:28:08;;;;;;;56.47;45.03;;;0.30;99.90;;;;;;5063337;28;20382;-84
2021/12/12 00:30:34;;;;;;;59.50;45.33;;;0.20;99.90;;;;;;5067973;28;20382;-83
2021/12/12 00:33:01;;;;;;;58.80;44.40;;;0.20;99.90;;;;;;5069726;28;20438;-83
2021/12/12 00:35:27;;;;;;;55.65;43.38;;;0.20;99.90;;;;;;5061349;28;20467;-84
2021/12/12 00:38:00;;;;;;;56.23;44.87;;;0.10;99.90;;;;;;5071661;28;20382;-83
2021/12/12 00:40:36;;;;;;;55.58;42.88;;;0.10;99.90;;;;;;5069660;28;20394;-84
2021/12/12 00:43:13;;;;;;;54.67;42.30;;;0.20;99.90;;;;;;5069509;28;20406;-81
2021/12/12 00:45:39;;;;;;;53.92;42.58;;;0.10;99.90;;;;;;5062608;28;20494;-85
2021/12/12 00:48:06;;;;;;;55.97;42.83;;;0.10;99.90;;;;;;5081645;28;20393;-82
2021/12/12 00:50:35;;;;;;;56.13;43.72;;;0.10;99.90;;;;;;5075484;28;20403;-82
2021/12/12 00:53:04;;;;;;;57.58;44.35;;;0.20;99.90;;;;;;5069103;28;20389;-83
2021/12/12 00:55:30;;;;;;;60.42;46.63;;;0.20;99.90;;;;;;5064453;28;20389;-83
2021/12/12 00:57:56;;;;;;;58.97;44.65;;;0.20;99.90;;;;;;5070044;28;20382;-83
2021/12/12 01:00:27;;;;;;;57.03;44.73;;;0.30;99.90;;;;;;5068890;28;20515;-84
2021/12/12 01:02:54;;;;;;;57.37;43.57;;;0.40;99.90;;;;;;5071194;28;20417;-82
2021/12/12 01:05:20;;;;;;;51.05;40.80;;;0.50;99.90;;;;;;5064932;28;20409;-86
2021/12/12 01:07:48;;;;;;;50.38;40.90;;;0.60;99.90;;;;;;5103693;28;20386;-82
2021/12/12 01:10:28;;;;;;;49.83;39.30;;;0.70;99.90;;;;;;5068678;28;20921;-84
2021/12/12 01:12:55;;;;;;;49.93;40.37;;;0.70;99.90;;;;;;5071176;28;20400;-83
2021/12/12 01:15:34;;;;;;;48.92;39.97;;;0.70;99.90;;;;;;5058521;28;20382;-82
2021/12/12 01:18:05;;;;;;;51.35;40.67;;;0.80;99.90;;;;;;5050281;28;20392;-83
2021/12/12 01:20:50;;;;;;;52.63;40.75;;;0.80;99.90;;;;;;5064499;28;20394;-84
2021/12/12 01:23:22;;;;;;;50.92;39.90;;;0.80;99.90;;;;;;5060429;28;20466;-84
2021/12/12 01:25:49;;;;;;;50.90;39.42;;;0.80;99.90;;;;;;5068310;28;20397;-82
2021/12/12 01:28:19;;;;;;;50.45;39.58;;;0.80;99.90;;;;;;5052704;28;20374;-84
2021/12/12 01:30:47;;;;;;;49.95;40.50;;;0.90;99.90;;;;;;5061938;28;20435;-84
2021/12/12 01:33:21;;;;;;;51.83;40.17;;;0.90;99.90;;;;;;5032612;28;20375;-85
2021/12/12 01:35:47;;;;;;;51.70;40.47;;;0.90;99.90;;;;;;5056584;28;20570;-84
2021/12/12 01:40:58;;;;;;;47.65;39.58;;;0.90;99.90;;;;;;5050376;28;20449;-84
2021/12/12 01:43:29;;;;;;;48.90;40.72;;;0.90;99.90;;;;;;5032048;28;20499;-83
2021/12/12 01:46:01;;;;;;;48.00;40.70;;;0.90;99.90;;;;;;5058483;28;20396;-84
2021/12/12 01:48:35;;;;;;;50.55;39.75;;;0.90;99.90;;;;;;5036731;28;20469;-85
2021/12/12 01:51:05;;;;;;;47.37;39.60;;;0.90;99.90;;;;;;5067918;28;20395;-84
2021/12/12 01:53:34;;;;;;;43.37;36.63;;;0.90;99.90;;;;;;5055707;28;20399;-83
2021/12/12 01:56:02;;;;;;;46.17;38.80;;;0.90;99.90;;;;;;5045285;28;20454;-84
2021/12/12 01:58:30;;;;;;;46.15;36.50;;;0.90;99.90;;;;;;5051653;28;20741;-85
2021/12/12 02:01:06;;;;;;;52.40;40.63;;;1.00;99.90;;;;;;5058680;28;20372;-85
2021/12/12 02:03:36;;;;;;;49.13;40.22;;;1.00;99.90;;;;;;5047143;28;20409;-83
2021/12/12 02:06:07;;;;;;;47.33;38.47;;;1.00;99.90;;;;;;5050514;28;20880;-84
2021/12/12 02:08:34;;;;;;;51.72;41.22;;;1.00;99.90;;;;;;5031596;28;20395;-84
2021/12/12 02:11:06;;;;;;;46.22;39.72;;;1.00;99.90;;;;;;5031630;28;20384;-84
2021/12/12 02:13:38;;;;;;;51.95;41.33;;;0.90;99.90;;;;;;5031943;28;20454;-84
2021/12/12 02:16:04;;;;;;;51.47;41.23;;;1.00;99.90;;;;;;5045209;28;20740;-85
2021/12/12 02:18:36;;;;;;;50.00;41.05;;;0.90;99.90;;;;;;5033931;28;20391;-84
2021/12/12 02:21:19;;;;;;;47.78;39.97;;;0.90;99.90;;;;;;5047151;28;20951;-84
2021/12/12 02:37:23;;;;;;;44.75;37.38;;;0.90;99.90;;;;;;5054919;28;20405;-82
2021/12/12 02:39:49;;;;;;;44.42;36.67;;;0.90;99.90;;;;;;5069034;28;20851;-83
2021/12/12 02:42:18;;;;;;;44.35;37.10;;;0.90;99.90;;;;;;5066255;28;20768;-85
2021/12/12 02:44:45;;;;;;;43.00;36.05;;;0.90;99.90;;;;;;5057890;28;20904;-83
2021/12/12 02:47:14;;;;;;;46.28;37.95;;;0.90;99.90;;;;;;5060680;28;20397;-84
2021/12/12 02:52:24;;;;;;;45.00;37.95;;;0.70;99.90;;;;;;5053106;28;20398;-85
2021/12/12 02:54:50;;;;;;;44.67;37.55;;;0.70;99.90;;;;;;5055850;28;20388;-83
2021/12/12 02:57:17;;;;;;;45.00;38.60;;;0.60;99.90;;;;;;5053178;28;20547;-83
2021/12/12 02:59:48;;;;;;;44.80;38.13;;;0.60;99.90;;;;;;5068617;28;20398;-83
2021/12/12 03:02:43;;;;;;;44.65;37.38;;;0.60;99.90;;;;;;5068152;28;20442;-84
2021/12/12 03:05:10;;;;;;;47.55;38.58;;;0.60;99.90;;;;;;5056100;28;20410;-86
2021/12/12 03:07:36;;;;;;;46.03;37.13;;;0.60;99.90;;;;;;5088213;28;20887;-85
2021/12/12 03:10:07;;;;;;;45.78;38.45;;;0.60;99.90;;;;;;5068795;28;20420;-85
2021/12/12 03:12:36;;;;;;;47.35;38.88;;;0.60;99.90;;;;;;5067666;28;20756;-83
2021/12/12 03:15:10;;;;;;;44.80;37.03;;;0.50;99.90;;;;;;5066950;28;20954;-83
2021/12/12 03:17:38;;;;;;;43.25;36.67;;;0.50;99.90;;;;;;5050310;28;20403;-84
2021/12/12 03:20:23;;;;;;;42.20;36.20;;;0.50;99.90;;;;;;5063715;28;20535;-84
2021/12/12 03:23:15;;;;;;;42.13;36.73;;;0.60;99.90;;;;;;5047913;28;20877;-83
2021/12/12 03:25:43;;;;;;;45.58;36.58;;;0.60;99.90;;;;;;5046448;28;20419;-83
2021/12/12 03:28:14;;;;;;;42.47;36.08;;;0.70;99.90;;;;;;5048593;28;20518;-84
2021/12/12 03:30:41;;;;;;;41.23;35.83;;;0.60;99.90;;;;;;5048365;28;20462;-84
2021/12/12 03:33:07;;;;;;;43.88;37.40;;;0.60;99.90;;;;;;5047208;28;20384;-85
2021/12/12 03:35:33;;;;;;;46.78;38.20;;;0.50;99.90;;;;;;5055668;28;20738;-83
2021/12/12 03:38:00;;;;;;;47.30;38.78;;;0.40;99.90;;;;;;5046728;28;20407;-83
2021/12/12 03:40:30;;;;;;;44.67;36.97;;;0.40;99.90;;;;;;5046780;28;20792;-83
2021/12/12 03:42:58;;;;;;;45.65;38.05;;;0.40;99.90;;;;;;5048509;28;20816;-85
2021/12/12 03:45:24;;;;;;;45.58;38.72;;;0.40;99.90;;;;;;5060906;28;20393;-85
2021/12/12 03:47:55;;;;;;;50.15;39.42;;;0.40;99.90;;;;;;5050499;28;20898;-85
2021/12/12 03:50:25;;;;;;;48.20;40.05;;;0.30;99.90;;;;;;5061594;28;20854;-84
2021/12/12 03:52:52;;;;;;;49.08;40.88;;;0.30;99.90;;;;;;5089718;28;20771;-84
2021/12/12 03:55:20;;;;;;;47.05;40.28;;;0.30;99.90;;;;;;5075747;28;20467;-85
2021/12/12 03:57:48;;;;;;;51.40;41.22;;;0.20;99.90;;;;;;5046660;28;20392;-87
2021/12/12 04:00:25;;;;;;;50.08;40.58;;;0.30;99.90;;;;;;5060370;28;20398;-85
2021/12/12 04:02:51;;;;;;;47.30;39.72;;;0.40;99.90;;;;;;5066842;28;20405;-84
2021/12/12 04:05:17;;;;;;;50.20;40.42;;;0.60;99.90;;;;;;5065136;28;20385;-85
2021/12/12 04:07:43;;;;;;;45.03;38.22;;;0.70;99.90;;;;;;5069678;28;20462;-86
2021/12/12 04:10:12;;;;;;;46.78;39.42;;;0.70;99.90;;;;;;5071996;28;20948;-84
2021/12/12 04:12:38;;;;;;;49.65;38.80;;;0.70;99.90;;;;;;5070324;28;20397;-85
2021/12/12 04:15:05;;;;;;;50.23;39.40;;;0.80;99.90;;;;;;5061377;28;20387;-83
2021/12/12 04:17:31;;;;;;;48.47;38.70;;;0.90;99.90;;;;;;5051232;28;20411;-84
2021/12/12 04:20:00;;;;;;;48.03;38.40;;;0.80;99.90;;;;;;5069550;28;20465;-83
2021/12/12 04:22:26;;;;;;;50.85;39.53;;;0.80;99.90;;;;;;5063193;28;20510;-84
2021/12/12 04:24:54;;;;;;;49.28;40.03;;;0.90;99.90;;;;;;5060744;28;20400;-85
2021/12/12 04:27:22;;;;;;;51.60;39.70;;;1.00;99.90;;;;;;5070001;28;20387;-85
2021/12/12 04:29:49;;;;;;;49.40;39.17;;;1.00;99.90;;;;;;5071587;28;20370;-83
2021/12/12 04:32:25;;;;;;;50.50;41.70;;;1.00;99.90;;;;;;5067794;28;20382;-84
2021/12/12 04:35:00;;;;;;;51.75;41.08;;;1.10;99.90;;;;;;5064281;28;20445;-86
2021/12/12 04:37:27;;;;;;;52.22;41.03;;;1.20;99.90;;;;;;5051356;28;20408;-84
2021/12/12 04:39:56;;;;;;;52.22;40.53;;;1.20;99.90;;;;;;5049970;28;20870;-84
2021/12/12 04:42:29;;;;;;;50.35;40.65;;;1.20;99.90;;;;;;5050949;28;20754;-84
2021/12/12 04:45:08;;;;;;;51.53;39.60;;;1.30;99.90;;;;;;5059074;28;20393;-84
2021/12/12 04:50:56;;;;;;;51.20;40.50;;;1.40;99.90;;;;;;5052631;28;20398;-84
2021/12/12 04:53:32;;;;;;;52.70;40.45;;;1.40;99.90;;;;;;5050301;28;20407;-86
2021/12/12 04:56:19;;;;;;;51.78;41.25;;;1.50;99.90;;;;;;5058832;28;20400;-86
2021/12/12 04:58:54;;;;;;;54.60;42.42;;;1.50;99.90;;;;;;5069105;28;20684;-85
2021/12/12 05:01:41;;;;;;;59.13;43.97;;;1.40;99.90;;;;;;5069741;28;20790;-83
2021/12/12 05:04:32;;;;;;;62.97;46.35;;;1.50;99.90;;;;;;5069458;28;20402;-86
2021/12/12 05:07:05;;;;;;;67.05;46.05;;;1.40;99.90;;;;;;5084168;28;20746;-86
2021/12/12 05:09:42;;;;;;;66.38;47.50;;;1.40;99.90;;;;;;5049321;28;20913;-84
2021/12/12 05:12:20;;;;;;;63.45;47.17;;;1.40;99.90;;;;;;5082836;28;20493;-86
2021/12/12 05:14:53;;;;;;;62.10;44.45;;;1.40;99.90;;;;;;5054953;28;20421;-87
2021/12/12 05:17:36;;;;;;;63.60;45.72;;;1.30;99.90;;;;;;5066705;28;20386;-83
2021/12/12 05:20:07;;;;;;;58.67;43.65;;;1.30;99.90;;;;;;5050850;28;20465;-86
2021/12/12 05:22:45;;;;;;;58.15;43.20;;;1.30;99.90;;;;;;5076689;28;20406;-84
2021/12/12 05:25:17;;;;;;;57.83;43.90;;;1.20;99.90;;;;;;5057679;28;20403;-84
2021/12/12 05:27:44;;;;;;;58.35;43.95;;;1.20;99.90;;;;;;5075859;28;20426;-84
2021/12/12 05:30:14;;;;;;;58.25;44.47;;;1.00;99.90;;;;;;5050905;28;20426;-86
2021/12/12 05:32:41;;;;;;;57.05;43.63;;;1.00;99.90;;;;;;5054612;28;20390;-84
2021/12/12 05:35:16;;;;;;;60.22;44.83;;;0.90;99.90;;;;;;5062255;28;20386;-85
2021/12/12 05:37:49;;;;;;;62.55;46.08;;;0.90;99.90;;;;;;5082167;28;20388;-87
2021/12/12 05:40:16;;;;;;;67.97;50.45;;;0.90;99.90;;;;;;5081375;28;20387;-85
2021/12/12 05:42:43;;;;;;;69.50;50.38;;;0.80;99.90;;;;;;5050140;28;20426;-83
2021/12/12 05:45:11;;;;;;;70.40;49.97;;;0.80;99.90;;;;;;5074038;28;20393;-84
2021/12/12 05:47:37;;;;;;;65.80;48.47;;;0.80;99.90;;;;;;5065862;28;20399;-84
2021/12/12 05:50:08;;;;;;;65.43;46.60;;;0.90;99.90;;;;;;5067969;28;20392;-85
2021/12/12 05:52:34;;;;;;;59.77;45.13;;;1.00;99.90;;;;;;5066948;28;20400;-84
2021/12/12 05:55:02;;;;;;;59.88;43.83;;;1.10;99.90;;;;;;5061287;28;20893;-84
2021/12/12 05:57:30;;;;;;;57.70;44.38;;;1.20;99.90;;;;;;5057569;28;20422;-84
2021/12/12 05:59:57;;;;;;;58.25;43.60;;;1.00;99.90;;;;;;5048534;28;20467;-84
2021/12/12 06:02:24;;;;;;;57.60;43.53;;;1.10;99.90;;;;;;5049621;28;20391;-84
2021/12/12 06:04:53;;;;;;;58.00;44.40;;;1.00;99.90;;;;;;5049675;28;20453;-86
2021/12/12 06:07:20;;;;;;;56.28;43.10;;;0.90;99.90;;;;;;5052703;28;20717;-86
2021/12/12 06:09:49;;;;;;;53.15;41.65;;;1.00;99.90;;;;;;5068608;28;20434;-83
2021/12/12 06:12:16;;;;;;;49.67;40.03;;;0.90;99.90;;;;;;5067823;28;20390;-85
2021/12/12 06:14:43;;;;;;;54.17;40.63;;;1.00;99.90;;;;;;5064050;28;20395;-85
2021/12/12 06:17:14;;;;;;;51.33;40.65;;;1.00;99.90;;;;;;5082950;28;20444;-83
2021/12/12 06:19:41;;;;;;;53.08;40.75;;;1.00;99.90;;;;;;5049541;28;20466;-85
2021/12/12 06:22:08;;;;;;;58.30;42.85;;;1.00;99.90;;;;;;5048868;28;20463;-87
2021/12/12 06:24:36;;;;;;;53.40;42.08;;;1.00;99.90;;;;;;5066120;28;20410;-84
2021/12/12 06:27:09;;;;;;;59.95;44.78;;;1.00;99.90;;;;;;5052503;28;20385;-84
2021/12/12 06:29:34;;;;;;;56.07;44.37;;;1.00;99.90;;;;;;5052552;28;20482;-83
2021/12/12 06:32:01;;;;;;;50.77;41.90;;;1.00;99.90;;;;;;5048857;28;20471;-83
2021/12/12 06:34:27;;;;;;;54.10;42.13;;;1.00;99.90;;;;;;5049225;28;20434;-84
2021/12/12 06:36:53;;;;;;;52.73;41.10;;;1.00;99.90;;;;;;5049009;28;20420;-86
2021/12/12 06:39:20;;;;;;;51.65;41.10;;;1.00;99.90;;;;;;5048338;28;20438;-85
2021/12/12 06:41:47;;;;;;;55.40;42.22;;;1.00;99.90;;;;;;5047488;28;20425;-84
2021/12/12 06:44:13;;;;;;;54.03;41.95;;;1.00;99.90;;;;;;5047658;28;20388;-83
2021/12/12 06:46:41;;;;;;;50.20;40.85;;;1.00;99.90;;;;;;5049143;28;20730;-85
2021/12/12 06:49:09;;;;;;;51.87;40.90;;;1.00;99.90;;;;;;5058303;28;20384;-85
2021/12/12 06:51:38;;;;;;;50.83;40.17;;;1.00;99.90;;;;;;5049499;28;20388;-86
2021/12/12 06:54:05;;;;;;;49.60;40.25;;;1.00;99.90;;;;;;5080958;28;20395;-86
2021/12/12 06:56:31;;;;;;;47.20;39.72;;;1.00;99.90;;;;;;5048844;28;20897;-86
2021/12/12 06:58:58;;;;;;;47.70;39.88;;;1.00;99.90;;;;;;5053572;28;20881;-84
2021/12/12 07:01:27;;;;;;;46.63;39.00;;;1.10;99.90;;;;;;5081340;28;20374;-86
2021/12/12 07:03:55;;;;;;;47.03;38.70;;;1.00;99.90;;;;;;5067525;28;20501;-85
2021/12/12 07:06:25;;;;;;;48.00;38.67;;;1.10;99.90;;;;;;5065589;28;20904;-84
2021/12/12 07:08:52;;;;;;;45.65;37.97;;;1.10;99.90;;;;;;5057026;28;20441;-85
2021/12/12 07:11:21;;;;;;;45.15;36.58;;;1.10;99.90;;;;;;5051808;28;20396;-84
2021/12/12 07:13:48;;;;;;;44.08;36.95;;;1.10;99.90;;;;;;5047099;28;20400;-86
2021/12/12 07:16:14;;;;;;;47.08;37.90;;;1.20;99.90;;;;;;5047283;28;20873;-84
2021/12/12 07:18:40;;;;;;;45.50;37.35;;;1.20;99.90;;;;;;5054574;28;20388;-86
2021/12/12 07:21:10;;;;;;;48.15;38.13;;;1.20;99.90;;;;;;5049276;28;20403;-86
2021/12/12 07:23:38;;;;;;;46.53;38.47;;;1.20;99.90;;;;;;5048324;28;20473;-84
2021/12/12 07:26:07;;;;;;;47.90;38.40;;;1.20;99.90;;;;;;5047490;28;20790;-84
2021/12/12 07:28:34;;;;;;;46.97;38.55;;;1.20;99.90;;;;;;5051453;28;20409;-85
2021/12/12 07:31:04;;;;;;;47.03;38.38;;;1.20;99.90;;;;;;5060003;28;20387;-87
2021/12/12 07:33:31;;;;;;;45.27;38.37;;;1.20;99.90;;;;;;5061038;28;20907;-85
2021/12/12 07:35:59;;;;;;;49.90;38.80;;;1.10;99.90;;;;;;5066912;28;20382;-84
2021/12/12 07:38:27;;;;;;;44.42;37.33;;;1.20;99.90;;;;;;5064992;28;20392;-86
2021/12/12 07:40:53;;;;;;;47.60;39.25;;;1.20;99.90;;;;;;5084523;28;20917;-84
2021/12/12 07:43:20;;;;;;;44.70;37.78;;;1.20;99.90;;;;;;5083498;28;20412;-84
2021/12/12 07:45:47;;;;;;;42.45;36.28;;;1.20;99.90;;;;;;5071432;28;20377;-85
2021/12/12 07:48:13;;;;;;;45.78;37.53;;;1.20;99.90;;;;;;5067475;28;20384;-87
2021/12/12 07:50:40;;;;;;;43.97;36.43;;;1.30;99.90;;;;;;5065350;28;20388;-86
2021/12/12 07:53:06;;;;;;;45.22;37.25;;;1.30;99.90;;;;;;5065393;28;20386;-84
2021/12/12 07:55:33;;;;;;;46.40;38.08;;;1.30;99.90;;;;;;5070668;28;20421;-86
2021/12/12 07:57:59;;;;;;;41.90;36.65;;;1.30;99.90;;;;;;5060072;28;20417;-84
2021/12/12 08:00:27;;;;;;;44.40;37.73;;;1.30;99.90;;;;;;5084427;28;20475;-87
2021/12/12 08:02:54;;;;;;;43.97;36.45;;;1.20;99.90;;;;;;5065887;28;20487;-87
2021/12/12 08:05:28;;;;;;;43.92;36.10;;;1.30;99.90;;;;;;5070429;28;20393;-85
2021/12/12 08:07:57;;;;;;;43.63;36.30;;;1.30;99.90;;;;;;5062170;28;20398;-85
2021/12/12 08:10:22;;;;;;;46.05;37.75;;;1.40;99.90;;;;;;5094481;28;20426;-86
2021/12/12 08:12:48;;;;;;;43.00;36.40;;;1.50;99.90;;;;;;5078467;28;20958;-85
2021/12/12 08:15:14;;;;;;;43.17;36.20;;;1.50;99.90;;;;;;5071973;28;21087;-82
2021/12/12 08:17:42;;;;;;;42.55;35.67;;;1.60;99.90;;;;;;5070595;28;20397;-82
2021/12/12 08:20:09;;;;;;;42.08;35.60;;;1.60;99.90;;;;;;5070353;28;20378;-84
2021/12/12 08:22:36;;;;;;;41.38;34.35;;;1.70;99.90;;;;;;5070148;28;20751;-83
2021/12/12 08:25:05;;;;;;;40.42;34.60;;;1.70;99.90;;;;;;5071772;28;20390;-84
2021/12/12 08:27:30;;;;;;;39.33;33.42;;;1.80;99.90;;;;;;5070047;28;20772;-84
2021/12/12 08:29:59;;;;;;;40.47;33.60;;;1.90;99.90;;;;;;5071236;28;20424;-87
2021/12/12 08:32:26;;;;;;;40.90;33.37;;;1.90;99.90;;;;;;5070135;28;20382;-84
2021/12/12 08:34:52;;;;;;;39.42;33.72;;;1.90;99.90;;;;;;5071627;28;20453;-83
2021/12/12 08:37:18;;;;;;;40.03;32.60;;;1.90;99.90;;;;;;5071669;28;20462;-84
2021/12/12 08:39:44;;;;;;;44.53;35.30;;;2.00;99.90;;;;;;5069699;28;20378;-85
2021/12/12 08:42:10;;;;;;;42.42;35.78;;;2.00;99.90;;;;;;5071260;28;20430;-84
2021/12/12 08:44:37;;;;;;;43.77;34.80;;;2.00;99.90;;;;;;5070015;28;20416;-82
2021/12/12 08:47:06;;;;;;;40.63;34.88;;;2.00;99.90;;;;;;5071414;28;20826;-81
2021/12/12 08:49:34;;;;;;;43.42;37.08;;;2.10;99.90;;;;;;5069891;28;20878;-83
2021/12/12 08:52:14;;;;;;;44.63;36.17;;;2.10;99.90;;;;;;5071350;28;20378;-82
2021/12/12 08:54:42;;;;;;;44.83;36.25;;;2.20;99.90;;;;;;5069350;28;20382;-82
2021/12/12 08:57:20;;;;;;;43.30;35.83;;;2.10;99.90;;;;;;5070091;28;20469;-84
2021/12/12 08:59:48;;;;;;;44.85;34.90;;;2.10;99.90;;;;;;5061249;28;20404;-85
2021/12/12 09:02:17;;;;;;;42.80;34.53;;;2.10;99.90;;;;;;5049669;28;20487;-84
2021/12/12 09:04:54;;;;;;;44.83;34.28;;;2.20;99.90;;;;;;5051979;28;20386;-84
2021/12/12 09:07:24;;;;;;;46.03;35.45;;;2.20;99.90;;;;;;5051004;28;20888;-82
2021/12/12 09:10:07;;;;;;;48.17;36.88;;;2.20;99.90;;;;;;5056243;28;20854;-83
2021/12/12 09:12:59;;;;;;;46.40;36.63;;;2.20;99.90;;;;;;5069473;28;20429;-83
2021/12/12 09:16:03;;;;;;;43.15;34.90;;;2.20;99.90;;;;;;5063497;28;20382;-82
2021/12/12 09:18:40;;;;;;;42.35;33.72;;;2.30;99.90;;;;;;5065340;28;20406;-84
2021/12/12 09:21:10;;;;;;;46.00;35.55;;;2.40;99.90;;;;;;5054524;28;20461;-83
2021/12/12 09:24:06;;;;;;;43.17;34.92;;;2.50;99.90;;;;;;5053232;28;20406;-83
2021/12/12 09:26:37;;;;;;;45.33;35.25;;;2.40;99.90;;;;;;5066671;28;20394;-84
2021/12/12 09:29:17;;;;;;;43.13;33.97;;;2.40;99.90;;;;;;5089015;28;20389;-84
2021/12/12 09:31:59;;;;;;;43.95;35.55;;;2.50;99.90;;;;;;5061425;28;20476;-82
2021/12/12 09:34:34;;;;;;;44.63;34.30;;;2.50;99.90;;;;;;5072041;28;20376;-85
2021/12/12 09:37:10;;;;;;;45.08;35.05;;;2.50;99.90;;;;;;5052607;28;20945;-83
2021/12/12 09:39:43;;;;;;;44.38;34.40;;;2.50;99.90;;;;;;5070571;28;20862;-86
2021/12/12 09:42:15;;;;;;;42.42;33.72;;;2.50;99.90;;;;;;5051787;28;20776;-82
2021/12/12 09:44:40;;;;;;;42.20;33.50;;;2.60;99.90;;;;;;5085758;28;20960;-84
2021/12/12 09:47:30;;;;;;;44.23;34.30;;;2.60;99.90;;;;;;5084683;28;20417;-84
2021/12/12 09:53:27;;;;;;;40.95;33.20;;;2.70;99.90;;;;;;5069929;28;20373;-85
2021/12/12 09:56:04;;;;;;;44.47;34.25;;;2.80;99.90;;;;;;5076478;28;20392;-82
2021/12/12 09:58:49;;;;;;;45.33;34.13;;;2.90;99.90;;;;;;5089702;28;20900;-83
2021/12/12 10:01:23;;;;;;;44.92;34.42;;;2.90;99.90;;;;;;5076186;28;20745;-84
2021/12/12 10:04:21;;;;;;;44.10;33.47;;;2.90;99.90;;;;;;5071556;28;20406;-84
2021/12/12 10:07:02;;;;;;;41.78;33.15;;;3.00;99.90;;;;;;5055693;28;20404;-83
2021/12/12 10:09:44;;;;;;;43.92;34.15;;;3.10;99.90;;;;;;5085118;28;20392;-83
2021/12/12 10:12:21;;;;;;;40.05;33.17;;;3.10;99.90;;;;;;5069117;28;20386;-84
2021/12/12 10:14:59;;;;;;;41.20;32.80;;;3.20;99.90;;;;;;5034858;28;20386;-82
2021/12/12 10:17:36;;;;;;;43.25;33.35;;;3.20;99.90;;;;;;5065468;28;20393;-83
2021/12/12 10:20:08;;;;;;;41.80;33.00;;;3.20;99.90;;;;;;5089600;28;20419;-83
2021/12/12 10:22:58;;;;;;;43.50;31.50;;;3.20;99.90;;;;;;5070984;28;20407;-83
2021/12/12 10:25:31;;;;;;;40.22;31.92;;;3.30;99.90;;;;;;5070976;28;20461;-84
2021/12/12 10:28:11;;;;;;;37.42;31.17;;;3.30;99.90;;;;;;5071426;28;20522;-84
2021/12/12 10:30:45;;;;;;;39.53;30.63;;;3.50;99.90;;;;;;5089250;28;20404;-82
2021/12/12 10:33:14;;;;;;;35.67;30.42;;;3.70;99.90;;;;;;5089559;28;20411;-83
2021/12/12 10:36:01;;;;;;;38.40;29.63;;;3.90;99.90;;;;;;5089190;28;20376;-86
2021/12/12 10:38:37;;;;;;;35.53;28.80;;;4.10;99.90;;;;;;5068369;28;20436;-85
2021/12/12 10:41:14;;;;;;;34.70;28.77;;;4.30;99.90;;;;;;5069890;28;20459;-86
2021/12/12 10:43:48;;;;;;;37.95;29.13;;;4.30;99.90;;;;;;5087970;28;20404;-84
2021/12/12 10:46:41;;;;;;;33.08;27.95;;;4.20;99.90;;;;;;5070229;28;20746;-84
2021/12/12 10:49:28;;;;;;;36.67;29.58;;;4.40;99.90;;;;;;5046792;28;20441;-83
2021/12/12 10:52:08;;;;;;;34.70;29.17;;;4.50;99.90;;;;;;5067298;28;20745;-83
2021/12/12 10:55:02;;;;;;;35.35;28.27;;;4.50;99.90;;;;;;5068231;28;20388;-83
2021/12/12 10:57:38;;;;;;;37.65;28.98;;;4.50;99.90;;;;;;5069206;28;20415;-83
2021/12/12 11:00:17;;;;;;;35.07;28.13;;;4.50;99.90;;;;;;5068513;28;20504;-84
2021/12/12 11:03:01;;;;;;;37.42;28.25;;;4.50;99.90;;;;;;5069322;28;20408;-83
2021/12/12 11:05:35;;;;;;;38.42;29.83;;;4.40;99.90;;;;;;5071104;28;20388;-85
2021/12/12 11:08:31;;;;;;;33.88;28.58;;;4.40;99.90;;;;;;5075792;28;20462;-84
2021/12/12 11:10:58;;;;;;;34.13;27.50;;;4.30;99.90;;;;;;5070802;28;20380;-86
2021/12/12 11:13:31;;;;;;;33.97;28.55;;;4.30;99.90;;;;;;5070354;28;20372;-82
2021/12/12 11:16:10;;;;;;;35.05;28.30;;;4.30;99.90;;;;;;5058120;28;20399;-84
2021/12/12 11:18:54;;;;;;;35.07;28.70;;;4.30;99.90;;;;;;5067545;28;20937;-84
2021/12/12 11:21:46;;;;;;;38.25;30.77;;;4.30;99.90;;;;;;5083319;28;20400;-83
2021/12/12 11:24:40;;;;;;;40.38;31.65;;;4.20;99.90;;;;;;5066079;28;20467;-83
2021/12/12 11:27:19;;;;;;;39.33;31.10;;;4.10;99.90;;;;;;5083846;28;20461;-84
2021/12/12 11:29:58;;;;;;;38.58;29.80;;;4.10;99.90;;;;;;5081085;28;20421;-85
2021/12/12 11:32:29;;;;;;;36.50;29.92;;;4.10;99.90;;;;;;5072525;28;20467;-83
2021/12/12 11:34:57;;;;;;;37.47;30.38;;;4.20;99.90;;;;;;5057425;28;20807;-84
2021/12/12 11:37:45;;;;;;;38.83;30.20;;;4.20;99.90;;;;;;5068336;28;20378;-85
2021/12/12 11:40:25;;;;;;;41.63;31.23;;;4.30;99.90;;;;;;5068343;28;20531;-83
2021/12/12 11:43:09;;;;;;;38.95;30.95;;;4.10;99.90;;;;;;5050127;28;20438;-83
2021/12/12 11:45:42;;;;;;;43.20;33.38;;;4.20;99.90;;;;;;5050168;28;20378;-83
2021/12/12 11:48:18;;;;;;;40.05;31.90;;;4.20;99.90;;;;;;5051464;28;20385;-83
2021/12/12 11:51:03;;;;;;;41.25;32.53;;;4.30;99.90;;;;;;5068153;28;20396;-85
2021/12/12 11:53:56;;;;;;;40.35;30.77;;;4.20;99.90;;;;;;5064252;28;20406;-84
2021/12/12 11:56:45;;;;;;;37.72;30.23;;;4.20;99.90;;;;;;5049963;28;20869;-84
2021/12/12 11:59:38;;;;;;;42.20;31.17;;;4.20;99.90;;;;;;5050202;28;20445;-83
2021/12/12 12:02:31;;;;;;;39.40;30.55;;;4.20;99.90;;;;;;5053027;28;20488;-84
2021/12/12 12:04:57;;;;;;;42.42;31.10;;;4.10;99.90;;;;;;5088633;28;20731;-84
2021/12/12 12:07:49;;;;;;;42.88;32.47;;;4.10;99.90;;;;;;5086808;28;20380;-85
2021/12/12 12:11:00;;;;;;;43.72;32.08;;;4.10;99.90;;;;;;5066756;28;20485;-84
2021/12/12 12:13:49;;;;;;;44.10;32.55;;;4.00;99.90;;;;;;5067848;28;20398;-84
2021/12/12 12:16:46;;;;;;;41.35;32.97;;;3.90;99.90;;;;;;5070679;28;20397;-85
2021/12/12 12:19:47;;;;;;;42.72;32.58;;;3.90;99.90;;;;;;5069179;28;20384;-83
2021/12/12 12:22:32;;;;;;;42.10;33.58;;;4.00;99.90;;;;;;5069760;28;20400;-85
2021/12/12 12:25:15;;;;;;;42.92;33.67;;;4.00;99.90;;;;;;5088671;28;20491;-85
2021/12/12 12:27:53;;;;;;;41.00;32.47;;;4.10;99.90;;;;;;5062164;28;20391;-83
2021/12/12 12:30:31;;;;;;;43.90;33.43;;;4.20;99.90;;;;;;5089977;28;20384;-85
2021/12/12 12:33:25;;;;;;;41.42;32.75;;;4.20;99.90;;;;;;5088053;28;20467;-85
2021/12/12 12:36:31;;;;;;;41.92;32.92;;;4.20;99.90;;;;;;5088603;28;20767;-84
2021/12/12 12:39:31;;;;;;;46.22;38.30;;;4.30;99.90;;;;;;5033438;28;20872;-84
2021/12/12 12:42:47;;;;;;;46.65;34.88;;;4.40;99.90;;;;;;5070308;28;20538;-84
2021/12/12 12:45:50;;;;;;;39.38;32.50;;;4.40;99.90;;;;;;5070439;28;20393;-84
2021/12/12 12:48:43;;;;;;;42.83;33.10;;;4.40;99.90;;;;;;5090678;28;20469;-83
2021/12/12 12:51:21;;;;;;;46.05;34.55;;;4.50;99.90;;;;;;5062131;28;20385;-84
2021/12/12 12:54:02;;;;;;;38.88;31.67;;;4.50;99.90;;;;;;5090610;28;20360;-84
2021/12/12 12:56:58;;;;;;;45.72;35.05;;;4.50;99.90;;;;;;5089595;28;20392;-84
2021/12/12 12:59:38;;;;;;;48.78;36.90;;;4.40;99.90;;;;;;5088182;28;20792;-84
2021/12/12 13:02:12;;;;;;;45.22;35.72;;;4.40;99.90;;;;;;5070128;28;20415;-85
2021/12/12 13:04:56;;;;;;;46.33;36.90;;;4.30;99.90;;;;;;5071897;28;21278;-85
2021/12/12 13:08:09;;;;;;;47.58;36.72;;;4.40;99.90;;;;;;5087724;28;20772;-85
2021/12/12 13:10:38;;;;;;;48.70;36.38;;;4.10;99.90;;;;;;5026680;28;20384;-83
2021/12/12 13:13:28;;;;;;;45.80;35.45;;;4.10;99.90;;;;;;5062403;28;20400;-84
2021/12/12 13:16:26;;;;;;;44.80;35.55;;;4.10;99.90;;;;;;5068225;28;20384;-84
2021/12/12 13:19:21;;;;;;;48.00;35.37;;;4.20;99.90;;;;;;5066025;28;20376;-84
2021/12/12 13:22:35;;;;;;;44.83;34.72;;;4.30;99.90;;;;;;5065326;28;20381;-83
2021/12/12 13:25:18;;;;;;;45.22;35.15;;;4.20;99.90;;;;;;5062483;28;20391;-84
2021/12/12 13:28:16;;;;;;;46.10;35.35;;;4.20;99.90;;;;;;5064090;28;20411;-84
2021/12/12 13:31:16;;;;;;;43.92;34.65;;;4.10;99.90;;;;;;5060755;28;20902;-83
2021/12/12 13:34:01;;;;;;;43.78;33.53;;;4.00;99.90;;;;;;5066507;28;20373;-86
2021/12/12 13:36:32;;;;;;;42.33;32.47;;;4.10;99.90;;;;;;5084533;28;21443;-85